sensor_id;sensor_type;location;lat;lon;timestamp;temperature;humidity
18934;DHT22;9599;53.706;10.384;2023-01-05T00:01:38;9.90;99.90
18934;DHT22;9599;53.706;10.384;2023-01-05T00:04:07;9.90;99.90
18934;DHT22;9599;53.706;10.384;2023-01-05T00:06:35;9.90;99.90
18934;DHT22;9599;53.706;10.384;2023-01-05T00:09:07;9.90;99.90
18934;DHT22;9599;53.706;10.384;2023-01-05T00:11:35;9.90;99.90
18934;DHT22;9599;53.706;10.384;2023-01-05T00:14:23;9.90;99.90
18934;DHT22;9599;53.706;10.384;2023-01-05T00:17:10;9.80;99.90
18934;DHT22;9599;53.706;10.384;2023-01-05T00:19:56;9.80;99.90
18934;DHT22;9599;53.706;10.384;2023-01-05T00:22:44;9.70;99.90
18934;DHT22;9599;53.706;10.384;2023-01-05T00:25:15;9.70;99.90
18934;DHT22;9599;53.706;10.384;2023-01-05T00:27:45;9.70;99.90
18934;DHT22;9599;53.706;10.384;2023-01-05T00:30:15;9.70;99.90
18934;DHT22;9599;53.706;10.384;2023-01-05T00:32:43;9.70;99.90
18934;DHT22;9599;53.706;10.384;2023-01-05T00:35:11;9.60;99.90
18934;DHT22;9599;53.706;10.384;2023-01-05T00:37:40;9.60;99.90
18934;DHT22;9599;53.706;10.384;2023-01-05T00:40:10;9.60;99.90
18934;DHT22;9599;53.706;10.384;2023-01-05T00:42:40;9.60;99.90
18934;DHT22;9599;53.706;10.384;2023-01-05T00:45:10;9.60;99.90
18934;DHT22;9599;53.706;10.384;2023-01-05T00:47:38;9.60;99.90
18934;DHT22;9599;53.706;10.384;2023-01-05T00:50:08;9.60;99.90
18934;DHT22;9599;53.706;10.384;2023-01-05T00:52:36;9.60;99.90
18934;DHT22;9599;53.706;10.384;2023-01-05T00:55:05;9.60;99.90
18934;DHT22;9599;53.706;10.384;2023-01-05T00:57:34;9.60;99.90
18934;DHT22;9599;53.706;10.384;2023-01-05T01:00:05;9.70;99.90
18934;DHT22;9599;53.706;10.384;2023-01-05T01:02:34;9.70;99.90
18934;DHT22;9599;53.706;10.384;2023-01-05T01:05:01;9.60;99.90
18934;DHT22;9599;53.706;10.384;2023-01-05T01:07:29;9.60;99.90
18934;DHT22;9599;53.706;10.384;2023-01-05T01:09:57;9.60;99.90
18934;DHT22;9599;53.706;10.384;2023-01-05T01:12:25;9.60;99.90
18934;DHT22;9599;53.706;10.384;2023-01-05T01:14:53;9.60;99.90
18934;DHT22;9599;53.706;10.384;2023-01-05T01:17:22;9.50;99.90
18934;DHT22;9599;53.706;10.384;2023-01-05T01:19:50;9.50;99.90
18934;DHT22;9599;53.706;10.384;2023-01-05T01:22:18;9.50;99.90
18934;DHT22;9599;53.706;10.384;2023-01-05T01:24:46;9.50;99.90
18934;DHT22;9599;53.706;10.384;2023-01-05T01:27:14;9.50;99.90
18934;DHT22;9599;53.706;10.384;2023-01-05T01:29:42;9.50;99.90
18934;DHT22;9599;53.706;10.384;2023-01-05T01:32:10;9.50;99.90
18934;DHT22;9599;53.706;10.384;2023-01-05T01:34:39;9.40;99.90
18934;DHT22;9599;53.706;10.384;2023-01-05T01:37:07;9.40;99.90
18934;DHT22;9599;53.706;10.384;2023-01-05T01:39:41;9.40;99.90
18934;DHT22;9599;53.706;10.384;2023-01-05T01:42:13;9.40;99.90
18934;DHT22;9599;53.706;10.384;2023-01-05T01:44:50;9.40;99.90
18934;DHT22;9599;53.706;10.384;2023-01-05T01:47:31;9.40;99.90
18934;DHT22;9599;53.706;10.384;2023-01-05T01:50:02;9.30;99.90
18934;DHT22;9599;53.706;10.384;2023-01-05T01:52:31;9.30;99.90
18934;DHT22;9599;53.706;10.384;2023-01-05T01:55:01;9.30;99.90
18934;DHT22;9599;53.706;10.384;2023-01-05T01:57:31;9.30;99.90
18934;DHT22;9599;53.706;10.384;2023-01-05T02:00:02;9.20;99.90
18934;DHT22;9599;53.706;10.384;2023-01-05T02:02:31;9.20;99.90
18934;DHT22;9599;53.706;10.384;2023-01-05T02:05:03;9.20;99.90
18934;DHT22;9599;53.706;10.384;2023-01-05T02:07:36;9.20;99.90
18934;DHT22;9599;53.706;10.384;2023-01-05T02:10:05;9.20;99.90
18934;DHT22;9599;53.706;10.384;2023-01-05T02:12:37;9.20;99.90
18934;DHT22;9599;53.706;10.384;2023-01-05T02:15:21;9.20;99.90
18934;DHT22;9599;53.706;10.384;2023-01-05T02:18:01;9.20;99.90
18934;DHT22;9599;53.706;10.384;2023-01-05T02:20:48;9.20;99.90
18934;DHT22;9599;53.706;10.384;2023-01-05T02:26:57;9.10;99.90
18934;DHT22;9599;53.706;10.384;2023-01-05T02:30:00;9.10;99.90
18934;DHT22;9599;53.706;10.384;2023-01-05T02:32:34;9.10;99.90
18934;DHT22;9599;53.706;10.384;2023-01-05T02:35:12;9.00;99.90
18934;DHT22;9599;53.706;10.384;2023-01-05T02:37:50;9.00;99.90
18934;DHT22;9599;53.706;10.384;2023-01-05T02:40:22;9.00;99.90
18934;DHT22;9599;53.706;10.384;2023-01-05T02:42:54;9.00;99.90
18934;DHT22;9599;53.706;10.384;2023-01-05T02:45:24;9.00;99.90
18934;DHT22;9599;53.706;10.384;2023-01-05T02:47:57;9.00;99.90
18934;DHT22;9599;53.706;10.384;2023-01-05T02:50:28;8.90;99.90
18934;DHT22;9599;53.706;10.384;2023-01-05T02:53:05;8.90;99.90
18934;DHT22;9599;53.706;10.384;2023-01-05T02:55:38;8.90;99.90
18934;DHT22;9599;53.706;10.384;2023-01-05T02:58:11;8.90;99.90
18934;DHT22;9599;53.706;10.384;2023-01-05T03:00:44;8.90;99.90
18934;DHT22;9599;53.706;10.384;2023-01-05T03:03:17;8.90;99.90
18934;DHT22;9599;53.706;10.384;2023-01-05T03:05:51;8.90;99.90
18934;DHT22;9599;53.706;10.384;2023-01-05T03:08:22;8.90;99.90
18934;DHT22;9599;53.706;10.384;2023-01-05T03:11:04;8.90;99.90
18934;DHT22;9599;53.706;10.384;2023-01-05T03:13:53;8.80;99.90
18934;DHT22;9599;53.706;10.384;2023-01-05T03:16:27;8.80;99.90
18934;DHT22;9599;53.706;10.384;2023-01-05T03:19:01;8.90;99.90
18934;DHT22;9599;53.706;10.384;2023-01-05T03:21:49;8.90;99.90
18934;DHT22;9599;53.706;10.384;2023-01-05T03:24:41;8.80;99.90
18934;DHT22;9599;53.706;10.384;2023-01-05T03:27:29;8.90;99.90
18934;DHT22;9599;53.706;10.384;2023-01-05T03:30:16;8.90;99.90
18934;DHT22;9599;53.706;10.384;2023-01-05T03:33:07;8.90;99.90
18934;DHT22;9599;53.706;10.384;2023-01-05T03:35:56;8.80;99.90
18934;DHT22;9599;53.706;10.384;2023-01-05T03:38:28;8.80;99.90
18934;DHT22;9599;53.706;10.384;2023-01-05T03:41:01;8.80;99.90
18934;DHT22;9599;53.706;10.384;2023-01-05T03:43:33;8.90;99.90
18934;DHT22;9599;53.706;10.384;2023-01-05T03:46:08;8.80;99.90
18934;DHT22;9599;53.706;10.384;2023-01-05T03:48:37;8.80;99.90
18934;DHT22;9599;53.706;10.384;2023-01-05T03:51:07;8.80;99.90
18934;DHT22;9599;53.706;10.384;2023-01-05T03:53:37;8.80;99.90
18934;DHT22;9599;53.706;10.384;2023-01-05T03:56:06;8.80;99.90
18934;DHT22;9599;53.706;10.384;2023-01-05T03:58:34;8.80;99.90
18934;DHT22;9599;53.706;10.384;2023-01-05T04:01:02;8.80;99.90
18934;DHT22;9599;53.706;10.384;2023-01-05T04:03:31;8.80;99.90
18934;DHT22;9599;53.706;10.384;2023-01-05T04:06:02;8.70;99.90
18934;DHT22;9599;53.706;10.384;2023-01-05T04:08:34;8.70;99.90
18934;DHT22;9599;53.706;10.384;2023-01-05T04:11:12;8.80;99.90
18934;DHT22;9599;53.706;10.384;2023-01-05T04:13:45;8.80;99.90
18934;DHT22;9599;53.706;10.384;2023-01-05T04:16:14;8.80;99.90
18934;DHT22;9599;53.706;10.384;2023-01-05T04:18:43;8.80;99.90
18934;DHT22;9599;53.706;10.384;2023-01-05T04:21:12;8.70;99.90
18934;DHT22;9599;53.706;10.384;2023-01-05T04:23:43;8.70;99.90
18934;DHT22;9599;53.706;10.384;2023-01-05T04:26:12;8.70;99.90
18934;DHT22;9599;53.706;10.384;2023-01-05T04:28:42;8.70;99.90
18934;DHT22;9599;53.706;10.384;2023-01-05T04:31:10;8.60;99.90
18934;DHT22;9599;53.706;10.384;2023-01-05T04:33:38;8.70;99.90
18934;DHT22;9599;53.706;10.384;2023-01-05T04:36:07;8.60;99.90
18934;DHT22;9599;53.706;10.384;2023-01-05T04:38:35;8.60;99.90
18934;DHT22;9599;53.706;10.384;2023-01-05T04:41:06;8.50;99.90
18934;DHT22;9599;53.706;10.384;2023-01-05T04:43:34;8.50;99.90
18934;DHT22;9599;53.706;10.384;2023-01-05T04:46:02;8.40;99.90
18934;DHT22;9599;53.706;10.384;2023-01-05T04:48:30;8.40;99.90
18934;DHT22;9599;53.706;10.384;2023-01-05T04:50:59;8.40;99.90
18934;DHT22;9599;53.706;10.384;2023-01-05T04:53:30;8.40;99.90
18934;DHT22;9599;53.706;10.384;2023-01-05T04:56:00;8.40;99.90
18934;DHT22;9599;53.706;10.384;2023-01-05T04:58:34;8.40;99.90
18934;DHT22;9599;53.706;10.384;2023-01-05T05:01:02;8.40;99.90
18934;DHT22;9599;53.706;10.384;2023-01-05T05:03:33;8.40;99.90
18934;DHT22;9599;53.706;10.384;2023-01-05T05:06:04;8.40;99.90
18934;DHT22;9599;53.706;10.384;2023-01-05T05:08:33;8.40;99.90
18934;DHT22;9599;53.706;10.384;2023-01-05T05:11:02;8.40;99.90
18934;DHT22;9599;53.706;10.384;2023-01-05T05:13:35;8.30;99.90
18934;DHT22;9599;53.706;10.384;2023-01-05T05:16:03;8.30;99.90
18934;DHT22;9599;53.706;10.384;2023-01-05T05:18:32;8.30;99.90
18934;DHT22;9599;53.706;10.384;2023-01-05T05:21:02;8.30;99.90
18934;DHT22;9599;53.706;10.384;2023-01-05T05:23:33;8.30;99.90
18934;DHT22;9599;53.706;10.384;2023-01-05T05:26:01;8.30;99.90
18934;DHT22;9599;53.706;10.384;2023-01-05T05:28:29;8.20;99.90
18934;DHT22;9599;53.706;10.384;2023-01-05T05:30:59;8.30;99.90
18934;DHT22;9599;53.706;10.384;2023-01-05T05:33:27;8.20;99.90
18934;DHT22;9599;53.706;10.384;2023-01-05T05:35:55;8.30;99.90
18934;DHT22;9599;53.706;10.384;2023-01-05T05:38:23;8.30;99.90
18934;DHT22;9599;53.706;10.384;2023-01-05T05:40:50;8.20;99.90
18934;DHT22;9599;53.706;10.384;2023-01-05T05:43:18;8.30;99.90
18934;DHT22;9599;53.706;10.384;2023-01-05T05:45:46;8.30;99.90
18934;DHT22;9599;53.706;10.384;2023-01-05T05:48:18;8.40;99.90
18934;DHT22;9599;53.706;10.384;2023-01-05T05:50:46;8.40;99.90
18934;DHT22;9599;53.706;10.384;2023-01-05T05:53:14;8.40;99.90
18934;DHT22;9599;53.706;10.384;2023-01-05T05:55:42;8.40;99.90
18934;DHT22;9599;53.706;10.384;2023-01-05T05:58:10;8.40;99.90
18934;DHT22;9599;53.706;10.384;2023-01-05T06:00:37;8.40;99.90
18934;DHT22;9599;53.706;10.384;2023-01-05T06:03:05;8.40;99.90
18934;DHT22;9599;53.706;10.384;2023-01-05T06:05:35;8.40;99.90
18934;DHT22;9599;53.706;10.384;2023-01-05T06:08:03;8.40;99.90
18934;DHT22;9599;53.706;10.384;2023-01-05T06:10:31;8.40;99.90
18934;DHT22;9599;53.706;10.384;2023-01-05T06:12:59;8.40;99.90
18934;DHT22;9599;53.706;10.384;2023-01-05T06:15:27;8.50;99.90
18934;DHT22;9599;53.706;10.384;2023-01-05T06:17:55;8.50;99.90
18934;DHT22;9599;53.706;10.384;2023-01-05T06:20:23;8.50;99.90
18934;DHT22;9599;53.706;10.384;2023-01-05T06:22:52;8.50;99.90
18934;DHT22;9599;53.706;10.384;2023-01-05T06:25:20;8.50;99.90
18934;DHT22;9599;53.706;10.384;2023-01-05T06:27:48;8.50;99.90
18934;DHT22;9599;53.706;10.384;2023-01-05T06:30:16;8.50;99.90
18934;DHT22;9599;53.706;10.384;2023-01-05T06:32:44;8.50;99.90
18934;DHT22;9599;53.706;10.384;2023-01-05T06:35:11;8.50;99.90
18934;DHT22;9599;53.706;10.384;2023-01-05T06:37:39;8.50;99.90
18934;DHT22;9599;53.706;10.384;2023-01-05T06:40:09;8.50;99.90
18934;DHT22;9599;53.706;10.384;2023-01-05T06:42:38;8.50;99.90
18934;DHT22;9599;53.706;10.384;2023-01-05T06:45:08;8.50;99.90
18934;DHT22;9599;53.706;10.384;2023-01-05T06:47:36;8.50;99.90
18934;DHT22;9599;53.706;10.384;2023-01-05T06:50:05;8.60;99.90
18934;DHT22;9599;53.706;10.384;2023-01-05T06:52:33;8.50;99.90
18934;DHT22;9599;53.706;10.384;2023-01-05T06:55:06;8.50;99.90
18934;DHT22;9599;53.706;10.384;2023-01-05T06:57:35;8.50;99.90
18934;DHT22;9599;53.706;10.384;2023-01-05T07:00:05;8.50;99.90
18934;DHT22;9599;53.706;10.384;2023-01-05T07:02:33;8.50;99.90
18934;DHT22;9599;53.706;10.384;2023-01-05T07:05:01;8.60;99.90
18934;DHT22;9599;53.706;10.384;2023-01-05T07:07:29;8.60;99.90
18934;DHT22;9599;53.706;10.384;2023-01-05T07:09:57;8.60;99.90
18934;DHT22;9599;53.706;10.384;2023-01-05T07:12:25;8.60;99.90
18934;DHT22;9599;53.706;10.384;2023-01-05T07:14:55;8.60;99.90
18934;DHT22;9599;53.706;10.384;2023-01-05T07:17:23;8.70;99.90
18934;DHT22;9599;53.706;10.384;2023-01-05T07:19:52;8.60;99.90
18934;DHT22;9599;53.706;10.384;2023-01-05T07:22:19;8.70;99.90
18934;DHT22;9599;53.706;10.384;2023-01-05T07:24:47;8.70;99.90
18934;DHT22;9599;53.706;10.384;2023-01-05T07:27:15;8.70;99.90
18934;DHT22;9599;53.706;10.384;2023-01-05T07:29:43;8.70;99.90
18934;DHT22;9599;53.706;10.384;2023-01-05T07:32:12;8.70;99.90
18934;DHT22;9599;53.706;10.384;2023-01-05T07:34:40;8.60;99.90
18934;DHT22;9599;53.706;10.384;2023-01-05T07:37:20;8.60;99.90
18934;DHT22;9599;53.706;10.384;2023-01-05T07:39:47;8.60;99.90
18934;DHT22;9599;53.706;10.384;2023-01-05T07:42:15;8.60;99.90
18934;DHT22;9599;53.706;10.384;2023-01-05T07:44:45;8.60;99.90
18934;DHT22;9599;53.706;10.384;2023-01-05T07:47:15;8.50;99.90
18934;DHT22;9599;53.706;10.384;2023-01-05T07:49:42;8.30;99.90
18934;DHT22;9599;53.706;10.384;2023-01-05T07:52:12;8.30;99.90
18934;DHT22;9599;53.706;10.384;2023-01-05T07:54:39;8.30;99.90
18934;DHT22;9599;53.706;10.384;2023-01-05T07:57:07;8.30;99.90
18934;DHT22;9599;53.706;10.384;2023-01-05T07:59:35;8.30;99.90
18934;DHT22;9599;53.706;10.384;2023-01-05T08:02:03;8.30;99.90
18934;DHT22;9599;53.706;10.384;2023-01-05T08:04:32;8.30;99.90
18934;DHT22;9599;53.706;10.384;2023-01-05T08:07:00;8.30;99.90
18934;DHT22;9599;53.706;10.384;2023-01-05T08:09:28;8.20;99.90
18934;DHT22;9599;53.706;10.384;2023-01-05T08:12:14;8.20;99.90
18934;DHT22;9599;53.706;10.384;2023-01-05T08:14:43;8.20;99.90
18934;DHT22;9599;53.706;10.384;2023-01-05T08:17:10;8.20;99.90
18934;DHT22;9599;53.706;10.384;2023-01-05T08:19:40;8.20;99.90
18934;DHT22;9599;53.706;10.384;2023-01-05T08:22:07;8.20;99.90
18934;DHT22;9599;53.706;10.384;2023-01-05T08:24:35;8.30;99.90
18934;DHT22;9599;53.706;10.384;2023-01-05T08:27:03;8.20;99.90
18934;DHT22;9599;53.706;10.384;2023-01-05T08:29:31;8.20;99.90
18934;DHT22;9599;53.706;10.384;2023-01-05T08:31:59;8.20;99.90
18934;DHT22;9599;53.706;10.384;2023-01-05T08:34:27;8.20;99.90
18934;DHT22;9599;53.706;10.384;2023-01-05T08:37:01;8.20;99.90
18934;DHT22;9599;53.706;10.384;2023-01-05T08:39:29;8.20;99.90
18934;DHT22;9599;53.706;10.384;2023-01-05T08:41:57;8.30;99.90
18934;DHT22;9599;53.706;10.384;2023-01-05T08:44:28;8.30;99.90
18934;DHT22;9599;53.706;10.384;2023-01-05T08:46:56;8.30;99.90
18934;DHT22;9599;53.706;10.384;2023-01-05T08:49:24;8.30;99.90
18934;DHT22;9599;53.706;10.384;2023-01-05T08:51:52;8.20;99.90
18934;DHT22;9599;53.706;10.384;2023-01-05T08:54:21;8.20;99.90
18934;DHT22;9599;53.706;10.384;2023-01-05T08:56:49;8.20;99.90
18934;DHT22;9599;53.706;10.384;2023-01-05T08:59:18;8.20;99.90
18934;DHT22;9599;53.706;10.384;2023-01-05T09:01:46;8.10;99.90
18934;DHT22;9599;53.706;10.384;2023-01-05T09:04:14;8.10;99.90
18934;DHT22;9599;53.706;10.384;2023-01-05T09:06:42;8.00;99.90
18934;DHT22;9599;53.706;10.384;2023-01-05T09:09:10;8.10;99.90
18934;DHT22;9599;53.706;10.384;2023-01-05T09:11:39;8.00;99.90
18934;DHT22;9599;53.706;10.384;2023-01-05T09:14:11;8.00;99.90
18934;DHT22;9599;53.706;10.384;2023-01-05T09:16:40;8.10;99.90
18934;DHT22;9599;53.706;10.384;2023-01-05T09:19:27;8.10;99.90
18934;DHT22;9599;53.706;10.384;2023-01-05T09:21:55;8.10;99.90
18934;DHT22;9599;53.706;10.384;2023-01-05T09:24:23;8.10;99.90
18934;DHT22;9599;53.706;10.384;2023-01-05T09:26:53;8.20;99.90
18934;DHT22;9599;53.706;10.384;2023-01-05T09:29:21;8.20;99.90
18934;DHT22;9599;53.706;10.384;2023-01-05T09:31:49;8.10;99.90
18934;DHT22;9599;53.706;10.384;2023-01-05T09:34:17;8.00;99.90
18934;DHT22;9599;53.706;10.384;2023-01-05T09:36:45;7.80;99.90
18934;DHT22;9599;53.706;10.384;2023-01-05T09:39:13;7.60;99.90
18934;DHT22;9599;53.706;10.384;2023-01-05T09:41:42;7.50;99.90
18934;DHT22;9599;53.706;10.384;2023-01-05T09:44:19;7.60;99.90
18934;DHT22;9599;53.706;10.384;2023-01-05T09:46:50;7.60;99.90
18934;DHT22;9599;53.706;10.384;2023-01-05T09:49:21;7.60;99.90
18934;DHT22;9599;53.706;10.384;2023-01-05T09:51:52;7.50;99.90
18934;DHT22;9599;53.706;10.384;2023-01-05T09:54:21;7.40;99.90
18934;DHT22;9599;53.706;10.384;2023-01-05T09:56:51;7.40;99.90
18934;DHT22;9599;53.706;10.384;2023-01-05T09:59:41;7.30;99.90
18934;DHT22;9599;53.706;10.384;2023-01-05T10:02:16;7.20;99.90
18934;DHT22;9599;53.706;10.384;2023-01-05T10:04:45;7.10;99.90
18934;DHT22;9599;53.706;10.384;2023-01-05T10:07:19;7.00;99.90
18934;DHT22;9599;53.706;10.384;2023-01-05T10:09:49;7.00;99.90
18934;DHT22;9599;53.706;10.384;2023-01-05T10:12:21;7.00;99.90
18934;DHT22;9599;53.706;10.384;2023-01-05T10:15:12;7.00;99.90
18934;DHT22;9599;53.706;10.384;2023-01-05T10:17:42;6.90;99.90
18934;DHT22;9599;53.706;10.384;2023-01-05T10:20:15;6.90;99.90
18934;DHT22;9599;53.706;10.384;2023-01-05T10:22:53;6.90;99.90
18934;DHT22;9599;53.706;10.384;2023-01-05T10:25:27;6.90;99.90
18934;DHT22;9599;53.706;10.384;2023-01-05T10:28:01;7.00;99.90
18934;DHT22;9599;53.706;10.384;2023-01-05T10:30:42;7.00;99.90
18934;DHT22;9599;53.706;10.384;2023-01-05T10:33:15;7.10;99.90
18934;DHT22;9599;53.706;10.384;2023-01-05T10:36:00;7.20;99.90
18934;DHT22;9599;53.706;10.384;2023-01-05T10:38:47;7.20;99.90
18934;DHT22;9599;53.706;10.384;2023-01-05T10:41:24;7.10;99.90
18934;DHT22;9599;53.706;10.384;2023-01-05T10:46:49;7.20;99.90
18934;DHT22;9599;53.706;10.384;2023-01-05T10:49:21;7.20;99.90
18934;DHT22;9599;53.706;10.384;2023-01-05T10:51:51;7.20;99.90
18934;DHT22;9599;53.706;10.384;2023-01-05T10:54:32;7.20;99.90
18934;DHT22;9599;53.706;10.384;2023-01-05T10:57:31;7.30;99.90
18934;DHT22;9599;53.706;10.384;2023-01-05T11:00:06;7.40;99.90
18934;DHT22;9599;53.706;10.384;2023-01-05T11:02:38;7.50;99.90
18934;DHT22;9599;53.706;10.384;2023-01-05T11:05:22;7.70;99.90
18934;DHT22;9599;53.706;10.384;2023-01-05T11:07:53;7.80;99.90
18934;DHT22;9599;53.706;10.384;2023-01-05T11:10:25;7.90;99.90
18934;DHT22;9599;53.706;10.384;2023-01-05T11:13:00;8.00;99.90
18934;DHT22;9599;53.706;10.384;2023-01-05T11:15:31;8.00;99.90
18934;DHT22;9599;53.706;10.384;2023-01-05T11:18:01;8.00;99.90
18934;DHT22;9599;53.706;10.384;2023-01-05T11:20:30;7.90;99.90
18934;DHT22;9599;53.706;10.384;2023-01-05T11:22:58;7.90;99.90
18934;DHT22;9599;53.706;10.384;2023-01-05T11:25:27;7.70;99.90
18934;DHT22;9599;53.706;10.384;2023-01-05T11:28:10;7.70;99.90
18934;DHT22;9599;53.706;10.384;2023-01-05T11:30:46;7.60;99.90
18934;DHT22;9599;53.706;10.384;2023-01-05T11:33:26;7.60;99.90
18934;DHT22;9599;53.706;10.384;2023-01-05T11:35:56;7.60;99.90
18934;DHT22;9599;53.706;10.384;2023-01-05T11:38:26;7.70;99.90
18934;DHT22;9599;53.706;10.384;2023-01-05T11:40:56;7.70;99.90
18934;DHT22;9599;53.706;10.384;2023-01-05T11:43:27;7.60;99.90
18934;DHT22;9599;53.706;10.384;2023-01-05T11:45:58;7.60;99.90
18934;DHT22;9599;53.706;10.384;2023-01-05T11:48:30;7.70;99.90
18934;DHT22;9599;53.706;10.384;2023-01-05T11:50:59;7.70;99.90
18934;DHT22;9599;53.706;10.384;2023-01-05T11:53:36;7.80;99.90
18934;DHT22;9599;53.706;10.384;2023-01-05T11:56:16;7.80;99.90
18934;DHT22;9599;53.706;10.384;2023-01-05T11:58:46;7.90;99.90
18934;DHT22;9599;53.706;10.384;2023-01-05T12:01:31;8.00;99.90
18934;DHT22;9599;53.706;10.384;2023-01-05T12:04:15;8.00;99.90
18934;DHT22;9599;53.706;10.384;2023-01-05T12:07:13;8.20;99.90
18934;DHT22;9599;53.706;10.384;2023-01-05T12:09:45;8.30;99.90
18934;DHT22;9599;53.706;10.384;2023-01-05T12:15:33;8.40;99.90
18934;DHT22;9599;53.706;10.384;2023-01-05T12:18:20;8.50;99.90
18934;DHT22;9599;53.706;10.384;2023-01-05T12:20:56;8.40;99.90
18934;DHT22;9599;53.706;10.384;2023-01-05T12:26:26;8.40;99.90
18934;DHT22;9599;53.706;10.384;2023-01-05T12:29:05;8.30;99.90
18934;DHT22;9599;53.706;10.384;2023-01-05T12:32:09;8.20;99.90
18934;DHT22;9599;53.706;10.384;2023-01-05T12:35:28;8.20;99.90
18934;DHT22;9599;53.706;10.384;2023-01-05T12:38:21;8.20;99.90
18934;DHT22;9599;53.706;10.384;2023-01-05T12:41:03;8.10;99.90
18934;DHT22;9599;53.706;10.384;2023-01-05T12:43:42;8.10;99.90
18934;DHT22;9599;53.706;10.384;2023-01-05T12:46:21;8.00;99.90
18934;DHT22;9599;53.706;10.384;2023-01-05T12:48:53;8.10;99.90
18934;DHT22;9599;53.706;10.384;2023-01-05T12:51:25;8.20;99.90
18934;DHT22;9599;53.706;10.384;2023-01-05T12:54:00;8.20;99.90
18934;DHT22;9599;53.706;10.384;2023-01-05T12:56:35;8.20;99.90
18934;DHT22;9599;53.706;10.384;2023-01-05T12:59:12;8.20;99.90
18934;DHT22;9599;53.706;10.384;2023-01-05T13:01:45;8.20;99.90
18934;DHT22;9599;53.706;10.384;2023-01-05T13:04:32;8.20;99.90
18934;DHT22;9599;53.706;10.384;2023-01-05T13:07:14;8.10;99.90
18934;DHT22;9599;53.706;10.384;2023-01-05T13:09:48;8.10;99.90
18934;DHT22;9599;53.706;10.384;2023-01-05T13:12:23;8.10;99.90
18934;DHT22;9599;53.706;10.384;2023-01-05T13:15:04;8.20;99.90
18934;DHT22;9599;53.706;10.384;2023-01-05T13:17:34;8.20;99.90
18934;DHT22;9599;53.706;10.384;2023-01-05T13:20:09;8.10;99.90
18934;DHT22;9599;53.706;10.384;2023-01-05T13:22:43;8.10;99.90
18934;DHT22;9599;53.706;10.384;2023-01-05T13:25:18;8.20;99.90
18934;DHT22;9599;53.706;10.384;2023-01-05T13:27:47;8.20;99.90
18934;DHT22;9599;53.706;10.384;2023-01-05T13:30:20;8.20;99.90
18934;DHT22;9599;53.706;10.384;2023-01-05T13:33:15;8.20;99.90
18934;DHT22;9599;53.706;10.384;2023-01-05T13:35:58;8.10;99.90
18934;DHT22;9599;53.706;10.384;2023-01-05T13:42:02;8.10;99.90
18934;DHT22;9599;53.706;10.384;2023-01-05T13:44:54;8.10;99.90
18934;DHT22;9599;53.706;10.384;2023-01-05T13:47:44;8.10;99.90
18934;DHT22;9599;53.706;10.384;2023-01-05T13:50:59;8.10;99.90
18934;DHT22;9599;53.706;10.384;2023-01-05T13:53:35;8.10;99.90
18934;DHT22;9599;53.706;10.384;2023-01-05T13:56:08;8.20;99.90
18934;DHT22;9599;53.706;10.384;2023-01-05T13:58:40;8.20;99.90
18934;DHT22;9599;53.706;10.384;2023-01-05T14:01:12;8.20;99.90
18934;DHT22;9599;53.706;10.384;2023-01-05T14:03:48;8.20;99.90
18934;DHT22;9599;53.706;10.384;2023-01-05T14:06:20;8.20;99.90
18934;DHT22;9599;53.706;10.384;2023-01-05T14:08:55;8.30;99.90
18934;DHT22;9599;53.706;10.384;2023-01-05T14:11:25;8.30;99.90
18934;DHT22;9599;53.706;10.384;2023-01-05T14:13:56;8.30;99.90
18934;DHT22;9599;53.706;10.384;2023-01-05T14:16:51;8.20;99.90
18934;DHT22;9599;53.706;10.384;2023-01-05T14:19:46;8.00;99.90
18934;DHT22;9599;53.706;10.384;2023-01-05T14:22:34;8.00;99.90
18934;DHT22;9599;53.706;10.384;2023-01-05T14:31:45;7.90;99.90
18934;DHT22;9599;53.706;10.384;2023-01-05T14:34:15;7.80;99.90
18934;DHT22;9599;53.706;10.384;2023-01-05T14:37:03;7.80;99.90
18934;DHT22;9599;53.706;10.384;2023-01-05T14:39:39;7.80;99.90
18934;DHT22;9599;53.706;10.384;2023-01-05T14:42:16;7.80;99.90
18934;DHT22;9599;53.706;10.384;2023-01-05T14:44:48;7.80;99.90
18934;DHT22;9599;53.706;10.384;2023-01-05T14:47:32;7.80;99.90
18934;DHT22;9599;53.706;10.384;2023-01-05T14:50:01;7.80;99.90
18934;DHT22;9599;53.706;10.384;2023-01-05T14:52:54;7.80;99.90
18934;DHT22;9599;53.706;10.384;2023-01-05T14:55:25;7.90;99.90
18934;DHT22;9599;53.706;10.384;2023-01-05T14:58:10;7.90;99.90
18934;DHT22;9599;53.706;10.384;2023-01-05T15:00:51;7.90;99.90
18934;DHT22;9599;53.706;10.384;2023-01-05T15:03:32;7.90;99.90
18934;DHT22;9599;53.706;10.384;2023-01-05T15:06:05;7.80;99.90
18934;DHT22;9599;53.706;10.384;2023-01-05T15:09:13;7.90;99.90
18934;DHT22;9599;53.706;10.384;2023-01-05T15:14:59;8.00;99.90
18934;DHT22;9599;53.706;10.384;2023-01-05T15:24:06;7.90;99.90
18934;DHT22;9599;53.706;10.384;2023-01-05T15:27:00;8.00;99.90
18934;DHT22;9599;53.706;10.384;2023-01-05T15:29:58;8.00;99.90
18934;DHT22;9599;53.706;10.384;2023-01-05T15:32:31;8.10;99.90
18934;DHT22;9599;53.706;10.384;2023-01-05T15:35:08;8.00;99.90
18934;DHT22;9599;53.706;10.384;2023-01-05T15:37:39;7.90;99.90
18934;DHT22;9599;53.706;10.384;2023-01-05T15:40:29;7.90;99.90
18934;DHT22;9599;53.706;10.384;2023-01-05T15:43:01;7.90;99.90
18934;DHT22;9599;53.706;10.384;2023-01-05T15:45:31;7.90;99.90
18934;DHT22;9599;53.706;10.384;2023-01-05T15:48:04;7.90;99.90
18934;DHT22;9599;53.706;10.384;2023-01-05T15:50:38;8.00;99.90
18934;DHT22;9599;53.706;10.384;2023-01-05T15:53:22;7.80;99.90
18934;DHT22;9599;53.706;10.384;2023-01-05T15:55:52;7.80;99.90
18934;DHT22;9599;53.706;10.384;2023-01-05T15:58:22;7.80;99.90
18934;DHT22;9599;53.706;10.384;2023-01-05T16:01:02;7.80;99.90
18934;DHT22;9599;53.706;10.384;2023-01-05T16:03:32;7.80;99.90
18934;DHT22;9599;53.706;10.384;2023-01-05T16:06:02;7.80;99.90
18934;DHT22;9599;53.706;10.384;2023-01-05T16:08:33;7.80;99.90
18934;DHT22;9599;53.706;10.384;2023-01-05T16:11:05;7.80;99.90
18934;DHT22;9599;53.706;10.384;2023-01-05T16:13:38;7.80;99.90
18934;DHT22;9599;53.706;10.384;2023-01-05T16:16:12;7.90;99.90
18934;DHT22;9599;53.706;10.384;2023-01-05T16:19:04;7.90;99.90
18934;DHT22;9599;53.706;10.384;2023-01-05T16:21:40;7.80;99.90
18934;DHT22;9599;53.706;10.384;2023-01-05T16:24:16;7.80;99.90
18934;DHT22;9599;53.706;10.384;2023-01-05T16:26:47;7.80;99.90
18934;DHT22;9599;53.706;10.384;2023-01-05T16:29:20;7.90;99.90
18934;DHT22;9599;53.706;10.384;2023-01-05T16:31:52;7.90;99.90
18934;DHT22;9599;53.706;10.384;2023-01-05T16:34:21;8.00;99.90
18934;DHT22;9599;53.706;10.384;2023-01-05T16:37:04;7.90;99.90
18934;DHT22;9599;53.706;10.384;2023-01-05T16:39:38;8.00;99.90
18934;DHT22;9599;53.706;10.384;2023-01-05T16:42:13;8.00;99.90
18934;DHT22;9599;53.706;10.384;2023-01-05T16:45:07;8.00;99.90
18934;DHT22;9599;53.706;10.384;2023-01-05T16:47:37;8.00;99.90
18934;DHT22;9599;53.706;10.384;2023-01-05T16:50:51;8.10;99.90
18934;DHT22;9599;53.706;10.384;2023-01-05T16:53:20;8.10;99.90
18934;DHT22;9599;53.706;10.384;2023-01-05T16:55:51;8.10;99.90
18934;DHT22;9599;53.706;10.384;2023-01-05T16:58:35;8.10;99.90